sensor_id;sensor_type;location;lat;lon;timestamp;pressure;altitude;pressure_sealevel;temperature;humidity
70458;BME280;57919;56.194;95.716;2023-04-27T00:04:46;99705.03;;;0.24;59.74
70458;BME280;57919;56.194;95.716;2023-04-27T00:14:48;99719.25;;;0.68;60.38
70458;BME280;57919;56.194;95.716;2023-04-27T00:24:50;99720.31;;;1.28;58.96
70458;BME280;57919;56.194;95.716;2023-04-27T00:34:52;99731.09;;;2.06;57.50
70458;BME280;57919;56.194;95.716;2023-04-27T00:44:56;99728.78;;;2.17;57.50
70458;BME280;57919;56.194;95.716;2023-04-27T00:55:01;99724.50;;;1.94;58.31
70458;BME280;57919;56.194;95.716;2023-04-27T01:05:05;99719.44;;;2.28;58.68
70458;BME280;57919;56.194;95.716;2023-04-27T01:15:08;99714.81;;;2.31;57.67
70458;BME280;57919;56.194;95.716;2023-04-27T01:25:10;99716.75;;;2.65;57.22
70458;BME280;57919;56.194;95.716;2023-04-27T01:35:13;99712.59;;;2.96;56.74
70458;BME280;57919;56.194;95.716;2023-04-27T01:45:15;99718.47;;;3.38;55.93
70458;BME280;57919;56.194;95.716;2023-04-27T01:55:16;99714.59;;;4.11;53.80
70458;BME280;57919;56.194;95.716;2023-04-27T02:05:19;99712.31;;;5.00;52.54
70458;BME280;57919;56.194;95.716;2023-04-27T02:15:22;99711.78;;;5.55;49.59
70458;BME280;57919;56.194;95.716;2023-04-27T02:25:24;99701.44;;;5.33;49.20
70458;BME280;57919;56.194;95.716;2023-04-27T02:35:26;99699.22;;;5.25;48.33
70458;BME280;57919;56.194;95.716;2023-04-27T02:45:28;99683.72;;;5.74;47.60
70458;BME280;57919;56.194;95.716;2023-04-27T02:55:30;99682.28;;;5.69;47.76
70458;BME280;57919;56.194;95.716;2023-04-27T03:05:32;99694.06;;;5.66;47.89
70458;BME280;57919;56.194;95.716;2023-04-27T03:15:34;99686.41;;;5.74;47.42
70458;BME280;57919;56.194;95.716;2023-04-27T03:25:36;99687.47;;;5.72;46.78
70458;BME280;57919;56.194;95.716;2023-04-27T03:35:38;99693.59;;;5.74;46.05
70458;BME280;57919;56.194;95.716;2023-04-27T03:45:40;99685.22;;;6.08;45.87
70458;BME280;57919;56.194;95.716;2023-04-27T03:55:43;99684.63;;;6.60;45.62
70458;BME280;57919;56.194;95.716;2023-04-27T04:05:46;99678.75;;;7.22;43.24
70458;BME280;57919;56.194;95.716;2023-04-27T04:15:48;99678.31;;;7.15;42.48
70458;BME280;57919;56.194;95.716;2023-04-27T04:25:50;99662.47;;;7.63;42.11
70458;BME280;57919;56.194;95.716;2023-04-27T04:35:54;99666.97;;;7.50;42.45
70458;BME280;57919;56.194;95.716;2023-04-27T04:45:56;99632.75;;;10.72;38.03
70458;BME280;57919;56.194;95.716;2023-04-27T04:56:09;99612.06;;;11.67;34.56
70458;BME280;57919;56.194;95.716;2023-04-27T05:06:11;99608.56;;;10.48;36.70
70458;BME280;57919;56.194;95.716;2023-04-27T05:16:13;99581.78;;;13.32;33.03
70458;BME280;57919;56.194;95.716;2023-04-27T05:26:17;99578.75;;;13.06;31.68
70458;BME280;57919;56.194;95.716;2023-04-27T05:36:19;99582.59;;;11.52;32.66
70458;BME280;57919;56.194;95.716;2023-04-27T05:46:21;99579.47;;;10.29;33.60
70458;BME280;57919;56.194;95.716;2023-04-27T05:56:23;99568.50;;;10.19;34.56
70458;BME280;57919;56.194;95.716;2023-04-27T06:06:26;99550.81;;;10.38;33.83
70458;BME280;57919;56.194;95.716;2023-04-27T06:16:28;99534.78;;;10.57;34.11
70458;BME280;57919;56.194;95.716;2023-04-27T06:26:30;99526.59;;;10.14;34.64
70458;BME280;57919;56.194;95.716;2023-04-27T06:36:32;99518.84;;;10.43;34.62
70458;BME280;57919;56.194;95.716;2023-04-27T06:46:34;99510.13;;;10.71;33.72
70458;BME280;57919;56.194;95.716;2023-04-27T06:56:36;99494.25;;;11.19;32.35
70458;BME280;57919;56.194;95.716;2023-04-27T07:06:38;99486.84;;;10.80;31.88
70458;BME280;57919;56.194;95.716;2023-04-27T07:16:41;99449.97;;;10.47;32.46
70458;BME280;57919;56.194;95.716;2023-04-27T07:26:44;99439.16;;;11.30;32.13
70458;BME280;57919;56.194;95.716;2023-04-27T07:36:46;99420.94;;;11.32;31.11
70458;BME280;57919;56.194;95.716;2023-04-27T07:46:48;99416.50;;;12.02;30.29
70458;BME280;57919;56.194;95.716;2023-04-27T07:56:50;99403.25;;;11.68;30.84
70458;BME280;57919;56.194;95.716;2023-04-27T08:06:52;99397.66;;;10.99;31.61
70458;BME280;57919;56.194;95.716;2023-04-27T08:16:54;99399.97;;;10.41;32.08
70458;BME280;57919;56.194;95.716;2023-04-27T08:26:56;99375.19;;;11.39;30.25
70458;BME280;57919;56.194;95.716;2023-04-27T08:36:58;99357.56;;;11.54;30.29
70458;BME280;57919;56.194;95.716;2023-04-27T08:47:03;99350.84;;;11.48;30.10
70458;BME280;57919;56.194;95.716;2023-04-27T08:57:12;99353.28;;;11.11;30.70
70458;BME280;57919;56.194;95.716;2023-04-27T09:07:16;99348.19;;;11.18;31.44
70458;BME280;57919;56.194;95.716;2023-04-27T09:17:24;99351.34;;;11.23;30.34
70458;BME280;57919;56.194;95.716;2023-04-27T09:27:26;99354.50;;;10.97;30.46
70458;BME280;57919;56.194;95.716;2023-04-27T09:37:29;99352.66;;;10.77;31.09
70458;BME280;57919;56.194;95.716;2023-04-27T09:47:32;99346.47;;;10.65;30.39
70458;BME280;57919;56.194;95.716;2023-04-27T10:08:08;99352.75;;;10.13;30.78
70458;BME280;57919;56.194;95.716;2023-04-27T10:18:12;99351.50;;;10.17;31.10
70458;BME280;57919;56.194;95.716;2023-04-27T10:28:16;99345.56;;;9.91;31.04
70458;BME280;57919;56.194;95.716;2023-04-27T10:38:21;99340.56;;;9.87;31.51
70458;BME280;57919;56.194;95.716;2023-04-27T10:48:29;99337.25;;;9.83;31.63
70458;BME280;57919;56.194;95.716;2023-04-27T10:58:33;99331.97;;;9.82;32.17
70458;BME280;57919;56.194;95.716;2023-04-27T11:08:43;99330.72;;;9.43;33.03
70458;BME280;57919;56.194;95.716;2023-04-27T11:18:46;99324.13;;;9.02;34.67
70458;BME280;57919;56.194;95.716;2023-04-27T11:39:00;99324.63;;;9.07;34.62
70458;BME280;57919;56.194;95.716;2023-04-27T11:49:04;99327.81;;;8.90;36.04
70458;BME280;57919;56.194;95.716;2023-04-27T11:59:17;99320.81;;;8.76;38.25
70458;BME280;57919;56.194;95.716;2023-04-27T12:09:19;99335.88;;;8.56;40.71
70458;BME280;57919;56.194;95.716;2023-04-27T12:19:22;99342.66;;;8.03;45.30
70458;BME280;57919;56.194;95.716;2023-04-27T12:29:27;99347.06;;;7.80;47.61
70458;BME280;57919;56.194;95.716;2023-04-27T12:39:29;99355.94;;;7.45;49.17
70458;BME280;57919;56.194;95.716;2023-04-27T12:49:32;99362.34;;;7.19;51.30
70458;BME280;57919;56.194;95.716;2023-04-27T12:59:35;99361.97;;;6.74;53.84
70458;BME280;57919;56.194;95.716;2023-04-27T13:09:37;99354.63;;;6.38;57.34
70458;BME280;57919;56.194;95.716;2023-04-27T13:19:39;99346.19;;;6.05;58.29
70458;BME280;57919;56.194;95.716;2023-04-27T13:29:41;99349.94;;;6.02;57.49
70458;BME280;57919;56.194;95.716;2023-04-27T13:39:44;99330.31;;;6.14;56.99
70458;BME280;57919;56.194;95.716;2023-04-27T13:49:46;99335.06;;;6.24;56.73
70458;BME280;57919;56.194;95.716;2023-04-27T13:59:48;99320.22;;;6.18;56.99
70458;BME280;57919;56.194;95.716;2023-04-27T14:09:49;99318.81;;;6.12;56.75
70458;BME280;57919;56.194;95.716;2023-04-27T14:19:51;99295.81;;;6.08;57.77
70458;BME280;57919;56.194;95.716;2023-04-27T14:29:53;99274.00;;;6.00;57.68
70458;BME280;57919;56.194;95.716;2023-04-27T14:39:56;99270.22;;;5.90;58.21
70458;BME280;57919;56.194;95.716;2023-04-27T14:49:57;99258.47;;;5.78;58.91
70458;BME280;57919;56.194;95.716;2023-04-27T14:59:59;99253.28;;;5.63;60.72
70458;BME280;57919;56.194;95.716;2023-04-27T15:10:02;99233.16;;;5.43;65.43
70458;BME280;57919;56.194;95.716;2023-04-27T15:20:05;99232.25;;;5.03;67.00
70458;BME280;57919;56.194;95.716;2023-04-27T15:30:08;99218.84;;;4.76;69.91
70458;BME280;57919;56.194;95.716;2023-04-27T15:40:10;99208.25;;;4.60;71.14
70458;BME280;57919;56.194;95.716;2023-04-27T15:50:12;99195.63;;;4.48;71.66
70458;BME280;57919;56.194;95.716;2023-04-27T16:00:14;99191.44;;;4.44;73.97
70458;BME280;57919;56.194;95.716;2023-04-27T16:10:17;99180.44;;;4.34;74.56
70458;BME280;57919;56.194;95.716;2023-04-27T16:20:19;99152.53;;;4.24;76.46
70458;BME280;57919;56.194;95.716;2023-04-27T16:30:22;99138.00;;;4.14;78.00
70458;BME280;57919;56.194;95.716;2023-04-27T16:40:24;99130.53;;;4.19;78.19
70458;BME280;57919;56.194;95.716;2023-04-27T16:50:26;99092.75;;;4.24;77.46
70458;BME280;57919;56.194;95.716;2023-04-27T17:00:28;99098.88;;;4.26;78.00
70458;BME280;57919;56.194;95.716;2023-04-27T17:10:30;99077.97;;;4.18;78.74
70458;BME280;57919;56.194;95.716;2023-04-27T17:20:32;99070.63;;;4.07;79.93
70458;BME280;57919;56.194;95.716;2023-04-27T17:30:34;99059.91;;;4.07;80.06
70458;BME280;57919;56.194;95.716;2023-04-27T17:40:36;99047.47;;;4.06;80.52
70458;BME280;57919;56.194;95.716;2023-04-27T17:50:38;99035.25;;;4.02;81.08
70458;BME280;57919;56.194;95.716;2023-04-27T18:00:42;99022.53;;;4.06;81.31
70458;BME280;57919;56.194;95.716;2023-04-27T18:10:44;98998.94;;;3.98;81.75
70458;BME280;57919;56.194;95.716;2023-04-27T18:20:46;98987.38;;;3.98;82.14
70458;BME280;57919;56.194;95.716;2023-04-27T18:30:49;98967.59;;;4.00;82.50
70458;BME280;57919;56.194;95.716;2023-04-27T18:40:51;98956.88;;;4.00;83.62
70458;BME280;57919;56.194;95.716;2023-04-27T18:50:52;98937.59;;;3.95;83.88
70458;BME280;57919;56.194;95.716;2023-04-27T19:00:54;98934.56;;;3.87;85.56
70458;BME280;57919;56.194;95.716;2023-04-27T19:10:57;98919.38;;;3.87;86.21
70458;BME280;57919;56.194;95.716;2023-04-27T19:20:58;98905.78;;;3.91;85.44
70458;BME280;57919;56.194;95.716;2023-04-27T19:31:00;98889.44;;;3.95;85.27
70458;BME280;57919;56.194;95.716;2023-04-27T19:41:03;98865.44;;;3.94;86.12
70458;BME280;57919;56.194;95.716;2023-04-27T19:51:08;98855.31;;;3.99;85.66
70458;BME280;57919;56.194;95.716;2023-04-27T20:01:10;98844.38;;;4.02;86.14
70458;BME280;57919;56.194;95.716;2023-04-27T20:11:12;98827.25;;;4.04;86.15
70458;BME280;57919;56.194;95.716;2023-04-27T20:21:14;98811.97;;;4.06;86.96
70458;BME280;57919;56.194;95.716;2023-04-27T20:31:16;98795.59;;;4.11;88.14
70458;BME280;57919;56.194;95.716;2023-04-27T20:41:18;98780.59;;;4.08;89.26
70458;BME280;57919;56.194;95.716;2023-04-27T20:51:21;98774.50;;;4.06;90.08
70458;BME280;57919;56.194;95.716;2023-04-27T21:01:24;98759.06;;;4.10;90.77
70458;BME280;57919;56.194;95.716;2023-04-27T21:11:26;98751.16;;;4.08;90.80
70458;BME280;57919;56.194;95.716;2023-04-27T21:21:28;98725.47;;;4.06;91.20
70458;BME280;57919;56.194;95.716;2023-04-27T21:31:31;98717.13;;;4.10;91.21
70458;BME280;57919;56.194;95.716;2023-04-27T21:41:33;98689.81;;;4.05;92.57
70458;BME280;57919;56.194;95.716;2023-04-27T21:51:36;98672.34;;;4.12;92.30
70458;BME280;57919;56.194;95.716;2023-04-27T22:01:38;98670.44;;;4.14;93.27
70458;BME280;57919;56.194;95.716;2023-04-27T22:11:40;98655.97;;;4.17;93.18
70458;BME280;57919;56.194;95.716;2023-04-27T22:21:43;98653.59;;;4.25;93.41
70458;BME280;57919;56.194;95.716;2023-04-27T22:31:45;98640.09;;;4.27;93.38
70458;BME280;57919;56.194;95.716;2023-04-27T22:41:47;98638.25;;;4.40;93.04
70458;BME280;57919;56.194;95.716;2023-04-27T22:51:49;98627.31;;;4.43;92.26
70458;BME280;57919;56.194;95.716;2023-04-27T23:01:51;98626.59;;;4.41;92.86
70458;BME280;57919;56.194;95.716;2023-04-27T23:11:53;98618.28;;;4.57;92.82
70458;BME280;57919;56.194;95.716;2023-04-27T23:21:55;98620.16;;;4.67;92.38
70458;BME280;57919;56.194;95.716;2023-04-27T23:32:01;98602.63;;;4.63;92.52
70458;BME280;57919;56.194;95.716;2023-04-27T23:42:04;98611.91;;;4.70;92.88
70458;BME280;57919;56.194;95.716;2023-04-27T23:52:06;98595.16;;;4.79;92.74
